createdAt,value
2022-10-18T00:00:19.593Z,7.46
2022-10-18T00:03:06.405Z,7.45
2022-10-18T00:05:33.765Z,7.43
2022-10-18T00:08:00.607Z,7.39
2022-10-18T00:10:27.503Z,7.35
2022-10-18T00:12:54.214Z,7.26
2022-10-18T00:15:20.938Z,7.21
2022-10-18T00:17:47.986Z,7.14
2022-10-18T00:20:14.813Z,7.14
2022-10-18T00:22:41.990Z,7.19
2022-10-18T00:25:09.641Z,7.18
2022-10-18T00:27:36.831Z,7.20
2022-10-18T00:30:04.698Z,7.21
2022-10-18T00:32:36.598Z,7.18
2022-10-18T00:35:04.437Z,7.15
2022-10-18T00:37:32.265Z,7.09
2022-10-18T00:39:58.963Z,7.07
2022-10-18T00:42:33.467Z,7.07
2022-10-18T00:45:38.092Z,7.02
2022-10-18T00:48:05.112Z,7.04
2022-10-18T00:50:34.104Z,7.08
2022-10-18T00:53:04.537Z,7.14
2022-10-18T00:55:33.686Z,7.19
2022-10-18T00:58:01.500Z,7.23
2022-10-18T01:00:28.329Z,7.21
2022-10-18T01:02:55.699Z,7.20
2022-10-18T01:05:23.541Z,7.18
2022-10-18T01:08:05.523Z,7.20
2022-10-18T01:11:03.138Z,7.17
2022-10-18T01:13:48.205Z,7.12
2022-10-18T01:16:14.846Z,7.05
2022-10-18T01:19:06.314Z,7.02
2022-10-18T01:21:44.481Z,7.12
2022-10-18T01:24:33.379Z,7.20
2022-10-18T01:27:45.043Z,7.11
2022-10-18T01:30:33.793Z,7.01
2022-10-18T01:33:06.830Z,7.01
2022-10-18T01:35:39.257Z,7.06
2022-10-18T01:38:10.897Z,7.08
2022-10-18T01:40:40.618Z,7.03
2022-10-18T01:43:09.732Z,7.05
2022-10-18T01:45:36.774Z,7.03
2022-10-18T01:48:04.034Z,7.00
2022-10-18T01:50:33.227Z,7.05
2022-10-18T01:53:00.723Z,7.06
2022-10-18T01:55:57.228Z,7.02
2022-10-18T01:58:40.562Z,6.91
2022-10-18T02:01:17.411Z,6.93
2022-10-18T02:03:48.798Z,7.01
2022-10-18T02:06:31.673Z,7.02
2022-10-18T02:09:13.416Z,7.04
2022-10-18T02:11:42.976Z,7.06
2022-10-18T02:14:13.849Z,7.01
2022-10-18T02:16:45.729Z,6.92
2022-10-18T02:19:21.925Z,6.91
2022-10-18T02:21:51.210Z,6.91
2022-10-18T02:24:20.751Z,6.86
2022-10-18T02:26:47.530Z,6.80
2022-10-18T02:29:14.372Z,6.76
2022-10-18T02:31:50.311Z,6.73
2022-10-18T02:34:20.355Z,6.71
2022-10-18T02:36:53.962Z,6.70
2022-10-18T02:39:26.937Z,6.70
2022-10-18T02:41:54.912Z,6.71
2022-10-18T02:44:21.903Z,6.77
2022-10-18T02:46:49.057Z,6.80
2022-10-18T02:49:16.528Z,6.81
2022-10-18T02:51:43.431Z,6.81
2022-10-18T02:54:10.263Z,6.82
2022-10-18T02:56:37.024Z,6.78
2022-10-18T02:59:06.716Z,6.71
2022-10-18T03:01:35.628Z,6.66
2022-10-18T03:04:03.376Z,6.54
2022-10-18T03:06:30.629Z,6.61
2022-10-18T03:08:57.282Z,6.71
2022-10-18T03:11:24.319Z,6.73
2022-10-18T03:13:51.058Z,6.70
2022-10-18T03:16:17.902Z,6.65
2022-10-18T03:18:44.954Z,6.54
2022-10-18T03:21:11.829Z,6.46
2022-10-18T03:23:39.610Z,6.37
2022-10-18T03:26:06.305Z,6.38
2022-10-18T03:28:33.100Z,6.32
2022-10-18T03:31:01.751Z,6.32
2022-10-18T03:33:29.375Z,6.35
2022-10-18T03:35:56.065Z,6.44
2022-10-18T03:38:22.985Z,6.45
2022-10-18T03:40:49.687Z,6.40
2022-10-18T03:43:16.470Z,6.37
2022-10-18T03:45:43.519Z,6.35
2022-10-18T03:48:10.291Z,6.40
2022-10-18T03:50:37.002Z,6.42
2022-10-18T03:53:03.954Z,6.39
2022-10-18T03:55:31.001Z,6.36
2022-10-18T03:57:57.685Z,6.38
2022-10-18T04:00:24.588Z,6.40
2022-10-18T04:02:53.489Z,6.37
2022-10-18T04:05:23.806Z,6.29
2022-10-18T04:07:50.770Z,6.26
2022-10-18T04:10:18.222Z,6.27
2022-10-18T04:12:44.839Z,6.24
2022-10-18T04:15:12.003Z,6.21
2022-10-18T04:17:38.846Z,6.22
2022-10-18T04:20:06.335Z,6.18
2022-10-18T04:22:33.049Z,6.20
2022-10-18T04:24:59.675Z,6.19
2022-10-18T04:27:26.432Z,6.14
2022-10-18T04:29:53.172Z,6.18
2022-10-18T04:32:19.917Z,6.19
2022-10-18T04:34:46.657Z,6.18
2022-10-18T04:37:13.601Z,6.13
2022-10-18T04:39:40.321Z,6.14
2022-10-18T04:42:06.962Z,6.14
2022-10-18T04:44:34.035Z,6.14
2022-10-18T04:47:00.707Z,6.19
2022-10-18T04:49:27.415Z,6.24
2022-10-18T04:51:54.101Z,6.28
2022-10-18T04:54:22.803Z,6.26
2022-10-18T04:56:51.936Z,6.28
2022-10-18T04:59:19.061Z,6.29
2022-10-18T05:01:45.719Z,6.30
2022-10-18T05:04:12.686Z,6.31
2022-10-18T05:06:39.628Z,6.25
2022-10-18T05:09:06.251Z,6.22
2022-10-18T05:11:33.318Z,6.26
2022-10-18T05:14:00.054Z,6.30
2022-10-18T05:16:27.999Z,6.29
2022-10-18T05:18:55.131Z,6.30
2022-10-18T05:21:22.132Z,6.36
2022-10-18T05:23:48.900Z,6.39
2022-10-18T05:26:15.817Z,6.40
2022-10-18T05:28:42.454Z,6.50
2022-10-18T05:31:11.349Z,6.54
2022-10-18T05:33:38.604Z,6.55
2022-10-18T05:36:06.166Z,6.56
2022-10-18T05:38:33.190Z,6.55
2022-10-18T05:41:05.132Z,6.59
2022-10-18T05:43:31.923Z,6.65
2022-10-18T05:45:58.688Z,6.71
2022-10-18T05:48:26.254Z,6.77
2022-10-18T05:50:52.966Z,6.81
2022-10-18T05:53:35.879Z,6.89
2022-10-18T05:56:05.603Z,7.02
2022-10-18T05:58:32.961Z,7.19
2022-10-18T06:01:01.158Z,7.39
2022-10-18T06:03:30.459Z,7.51
2022-10-18T06:06:02.915Z,7.60
2022-10-18T06:08:29.963Z,7.69
2022-10-18T06:10:56.811Z,7.81
2022-10-18T06:13:23.969Z,7.97
2022-10-18T06:15:55.553Z,8.11
2022-10-18T06:18:25.889Z,8.27
2022-10-18T06:20:58.404Z,8.43
2022-10-18T06:23:27.490Z,8.57
2022-10-18T06:25:58.647Z,8.69
2022-10-18T06:28:26.323Z,8.80
2022-10-18T06:30:53.246Z,8.87
2022-10-18T06:33:19.958Z,8.97
2022-10-18T06:36:17.592Z,9.06
2022-10-18T06:38:44.753Z,9.15
2022-10-18T06:41:11.880Z,9.22
2022-10-18T06:43:39.135Z,9.32
2022-10-18T06:46:07.602Z,9.44
2022-10-18T06:48:35.968Z,9.54
2022-10-18T06:51:05.004Z,9.62
2022-10-18T06:53:35.236Z,9.74
2022-10-18T06:56:12.120Z,9.87
2022-10-18T06:58:42.229Z,10.01
2022-10-18T07:01:13.025Z,10.15
2022-10-18T07:03:39.769Z,10.29
2022-10-18T07:09:27.141Z,10.57
2022-10-18T07:11:55.319Z,10.69
2022-10-18T07:14:26.916Z,10.81
2022-10-18T07:16:58.834Z,10.90
2022-10-18T07:19:25.543Z,11.03
2022-10-18T07:21:52.428Z,11.16
2022-10-18T07:24:19.059Z,11.33
2022-10-18T07:26:46.218Z,11.45
2022-10-18T07:29:12.927Z,11.56
2022-10-18T07:31:40.392Z,11.67
2022-10-18T07:34:10.130Z,11.78
2022-10-18T07:36:37.489Z,11.88
2022-10-18T07:39:04.946Z,11.98
2022-10-18T07:41:33.532Z,12.07
2022-10-18T07:44:01.980Z,12.15
2022-10-18T07:46:28.800Z,12.24
2022-10-18T07:48:56.114Z,12.34
2022-10-18T07:51:23.669Z,12.41
2022-10-18T07:53:50.551Z,12.47
2022-10-18T07:56:20.569Z,12.54
2022-10-18T07:58:53.073Z,12.60
2022-10-18T08:01:24.658Z,12.64
2022-10-18T08:03:52.950Z,12.70
2022-10-18T08:06:21.328Z,12.76
2022-10-18T08:08:48.401Z,12.80
2022-10-18T08:11:18.289Z,12.84
2022-10-18T08:13:45.912Z,12.91
2022-10-18T08:16:16.184Z,12.99
2022-10-18T08:18:43.441Z,13.04
2022-10-18T08:21:12.163Z,13.09
2022-10-18T08:23:39.175Z,13.18
2022-10-18T08:26:09.157Z,13.25
2022-10-18T08:28:37.189Z,13.34
2022-10-18T08:31:06.987Z,13.41
2022-10-18T08:33:35.714Z,13.48
2022-10-18T08:36:05.584Z,13.57
2022-10-18T08:38:38.344Z,13.63
2022-10-18T08:41:33.272Z,13.72
2022-10-18T08:44:11.995Z,13.79
2022-10-18T08:46:45.246Z,13.83
2022-10-18T08:49:23.612Z,13.85
2022-10-18T08:51:51.782Z,14.00
2022-10-18T08:54:29.476Z,14.15
2022-10-18T08:57:01.033Z,14.28
2022-10-18T08:59:38.731Z,14.60
2022-10-18T09:02:28.514Z,15.04
2022-10-18T09:05:14.200Z,15.45
2022-10-18T09:07:51.010Z,15.70
2022-10-18T09:10:17.860Z,16.10
2022-10-18T09:13:01.666Z,16.42
2022-10-18T09:15:41.633Z,16.71
2022-10-18T09:18:14.503Z,16.58
2022-10-18T09:20:58.251Z,17.09
2022-10-18T09:24:05.516Z,17.43
2022-10-18T09:26:42.418Z,17.48
2022-10-18T09:29:09.132Z,17.40
2022-10-18T09:31:55.985Z,17.13
2022-10-18T09:34:27.577Z,17.02
2022-10-18T09:36:55.807Z,17.03
2022-10-18T09:39:29.206Z,16.98
2022-10-18T09:42:11.618Z,16.92
2022-10-18T09:44:45.524Z,16.87
2022-10-18T09:47:18.680Z,16.82
2022-10-18T09:49:50.478Z,16.73
2022-10-18T09:52:36.376Z,16.70
2022-10-18T09:55:14.368Z,16.69
2022-10-18T09:57:47.461Z,16.67
2022-10-18T10:00:51.279Z,16.63
2022-10-18T10:03:18.019Z,16.52
2022-10-18T10:05:45.483Z,16.44
2022-10-18T10:08:12.838Z,16.42
2022-10-18T10:10:45.531Z,16.45
2022-10-18T10:13:17.077Z,16.46
2022-10-18T10:15:54.670Z,16.47
2022-10-18T10:18:22.847Z,16.43
2022-10-18T10:21:02.697Z,16.35
2022-10-18T10:23:38.585Z,16.39
2022-10-18T10:26:34.379Z,16.45
2022-10-18T10:29:01.342Z,16.47
2022-10-18T10:31:33.493Z,16.50
2022-10-18T10:34:19.790Z,16.55
2022-10-18T10:36:54.524Z,16.58
2022-10-18T10:39:24.036Z,16.61
2022-10-18T10:41:57.468Z,16.68
2022-10-18T10:44:31.340Z,16.67
2022-10-18T10:46:59.413Z,16.68
2022-10-18T10:49:47.350Z,16.64
2022-10-18T10:52:36.874Z,16.58
2022-10-18T10:55:23.246Z,16.61
2022-10-18T10:57:55.243Z,16.68
2022-10-18T11:00:52.117Z,16.71
2022-10-18T11:03:28.909Z,16.84
2022-10-18T11:06:00.106Z,16.90
2022-10-18T11:08:41.001Z,16.89
2022-10-18T11:11:23.152Z,16.89
2022-10-18T11:14:13.639Z,16.96
2022-10-18T11:17:08.219Z,17.05
2022-10-18T11:20:00.786Z,17.10
2022-10-18T11:22:35.844Z,17.12
2022-10-18T11:25:05.027Z,17.20
2022-10-18T11:28:05.230Z,17.27
2022-10-18T11:30:41.516Z,17.34
2022-10-18T11:33:56.468Z,17.39
2022-10-18T11:36:50.469Z,17.44
2022-10-18T11:39:58.788Z,17.40
2022-10-18T11:42:53.077Z,17.38
2022-10-18T11:45:22.473Z,17.38
2022-10-18T11:48:01.842Z,17.38
2022-10-18T11:50:58.041Z,17.42
2022-10-18T11:53:29.469Z,17.52
2022-10-18T11:55:56.158Z,17.58
2022-10-18T11:58:38.066Z,17.56
2022-10-18T12:01:28.616Z,17.59
2022-10-18T12:04:18.672Z,17.64
2022-10-18T12:06:48.317Z,17.70
2022-10-18T12:09:36.823Z,17.74
2022-10-18T12:12:06.816Z,17.53
2022-10-18T12:14:38.446Z,17.54
2022-10-18T12:17:51.327Z,17.60
2022-10-18T12:20:30.836Z,17.61
2022-10-18T12:23:35.371Z,17.68
2022-10-18T12:26:03.507Z,17.69
2022-10-18T12:29:26.524Z,17.66
2022-10-18T12:31:57.463Z,17.68
2022-10-18T12:34:42.899Z,17.70
2022-10-18T12:37:31.277Z,17.72
2022-10-18T12:40:18.763Z,17.70
2022-10-18T12:42:50.462Z,17.65
2022-10-18T12:45:34.494Z,17.61
2022-10-18T12:48:04.428Z,17.49
2022-10-18T12:50:43.345Z,17.47
2022-10-18T12:53:09.921Z,17.48
2022-10-18T12:58:13.412Z,17.47
2022-10-18T13:00:43.123Z,17.47
2022-10-18T13:03:10.274Z,17.48
2022-10-18T13:05:53.783Z,17.45
2022-10-18T13:08:31.192Z,17.38
2022-10-18T13:11:01.223Z,17.33
2022-10-18T13:13:50.502Z,17.34
2022-10-18T13:16:25.110Z,17.30
2022-10-18T13:18:56.777Z,17.26
2022-10-18T13:21:34.283Z,17.25
2022-10-18T13:24:16.227Z,17.23
2022-10-18T13:27:17.478Z,17.21
2022-10-18T13:29:55.931Z,17.22
2022-10-18T13:32:36.810Z,17.26
2022-10-18T13:35:24.974Z,17.25
2022-10-18T13:37:59.495Z,17.24
2022-10-18T13:40:26.419Z,17.17
2022-10-18T13:42:53.186Z,17.10
2022-10-18T13:45:32.609Z,17.05
2022-10-18T13:48:30.465Z,17.02
2022-10-18T13:51:11.858Z,17.00
2022-10-18T13:54:12.430Z,16.95
2022-10-18T13:57:11.194Z,16.91
2022-10-18T13:59:59.451Z,16.87
2022-10-18T14:02:54.552Z,16.82
2022-10-18T14:05:41.154Z,16.77
2022-10-18T14:08:19.945Z,16.73
2022-10-18T14:11:21.791Z,16.73
2022-10-18T14:13:55.607Z,16.73
2022-10-18T14:16:41.252Z,16.72
2022-10-18T14:19:19.760Z,16.67
2022-10-18T14:22:04.034Z,16.62
2022-10-18T14:24:31.366Z,16.58
2022-10-18T14:27:12.443Z,16.55
2022-10-18T14:29:40.289Z,16.52
2022-10-18T14:32:10.314Z,16.49
2022-10-18T14:34:38.408Z,16.45
2022-10-18T14:37:05.593Z,16.42
2022-10-18T14:39:32.908Z,16.39
2022-10-18T14:42:00.571Z,16.36
2022-10-18T14:44:31.622Z,16.32
2022-10-18T14:47:19.398Z,16.28
2022-10-18T14:49:46.504Z,16.23
2022-10-18T14:52:17.135Z,16.19
2022-10-18T14:54:44.749Z,16.15
2022-10-18T14:57:22.854Z,16.12
2022-10-18T14:59:56.434Z,16.07
2022-10-18T15:02:29.972Z,16.02
2022-10-18T15:04:58.083Z,15.97
2022-10-18T15:07:28.676Z,15.91
2022-10-18T15:09:58.839Z,15.86
2022-10-18T15:12:27.690Z,15.80
2022-10-18T15:14:55.316Z,15.73
2022-10-18T15:17:28.383Z,15.68
2022-10-18T15:20:18.094Z,15.62
2022-10-18T15:22:46.318Z,15.55
2022-10-18T15:25:29.341Z,15.48
2022-10-18T15:27:59.443Z,15.41
2022-10-18T15:30:44.073Z,15.35
2022-10-18T15:33:23.796Z,15.25
2022-10-18T15:35:52.898Z,15.19
2022-10-18T15:38:27.633Z,15.16
2022-10-18T15:40:54.971Z,15.12
2022-10-18T15:43:27.593Z,15.06
2022-10-18T15:46:06.239Z,14.97
2022-10-18T15:48:35.596Z,14.86
2022-10-18T15:51:05.408Z,14.78
2022-10-18T15:53:51.882Z,14.67
2022-10-18T15:56:35.133Z,14.56
2022-10-18T15:59:21.645Z,14.44
2022-10-18T16:01:48.762Z,14.33
2022-10-18T16:04:26.239Z,14.22
2022-10-18T16:06:54.970Z,14.16
2022-10-18T16:09:23.682Z,14.06
2022-10-18T16:11:55.810Z,13.92
2022-10-18T16:14:25.504Z,13.76
2022-10-18T16:17:02.454Z,13.68
2022-10-18T16:19:29.986Z,13.65
2022-10-18T16:21:56.561Z,13.58
2022-10-18T16:24:23.340Z,13.54
2022-10-18T16:26:51.272Z,13.52
2022-10-18T16:29:23.858Z,13.41
2022-10-18T16:31:52.963Z,13.35
2022-10-18T16:34:19.656Z,13.31
2022-10-18T16:36:46.185Z,13.24
2022-10-18T16:39:17.540Z,13.12
2022-10-18T16:41:45.558Z,13.09
2022-10-18T16:44:12.563Z,13.03
2022-10-18T16:46:40.436Z,12.93
2022-10-18T16:49:07.523Z,12.83
2022-10-18T16:51:34.216Z,12.79
2022-10-18T16:54:01.060Z,12.79
2022-10-18T16:56:30.922Z,12.72
2022-10-18T16:58:58.852Z,12.70
2022-10-18T17:01:26.643Z,12.75
2022-10-18T17:03:54.786Z,12.74
2022-10-18T17:06:21.428Z,12.71
2022-10-18T17:08:49.193Z,12.66
2022-10-18T17:11:17.107Z,12.62
2022-10-18T17:13:44.316Z,12.59
2022-10-18T17:16:21.015Z,12.51
2022-10-18T17:18:47.666Z,12.48
2022-10-18T17:21:14.373Z,12.45
2022-10-18T17:23:41.016Z,12.41
2022-10-18T17:26:27.845Z,12.30
2022-10-18T17:28:59.528Z,12.16
2022-10-18T17:31:27.868Z,12.08
2022-10-18T17:33:54.911Z,11.98
2022-10-18T17:36:22.165Z,11.89
2022-10-18T17:38:53.723Z,11.80
2022-10-18T17:41:21.406Z,11.71
2022-10-18T17:43:48.747Z,11.63
2022-10-18T17:46:17.328Z,11.51
2022-10-18T17:48:44.990Z,11.44
2022-10-18T17:51:14.769Z,11.38
2022-10-18T17:53:41.988Z,11.34
2022-10-18T17:56:10.133Z,11.27
2022-10-18T17:58:36.976Z,11.21
2022-10-18T18:01:09.900Z,11.17
2022-10-18T18:03:37.015Z,11.12
2022-10-18T18:06:14.278Z,11.13
2022-10-18T18:08:41.063Z,11.14
2022-10-18T18:11:07.891Z,11.10
2022-10-18T18:13:34.736Z,11.00
2022-10-18T18:16:14.922Z,10.88
2022-10-18T18:18:42.969Z,10.84
2022-10-18T18:21:10.017Z,10.82
2022-10-18T18:23:36.966Z,10.80
2022-10-18T18:26:04.316Z,10.80
2022-10-18T18:28:31.211Z,10.81
2022-10-18T18:30:58.113Z,10.80
2022-10-18T18:33:24.957Z,10.83
2022-10-18T18:35:56.822Z,10.75
2022-10-18T18:38:24.377Z,10.70
2022-10-18T18:41:06.049Z,10.76
2022-10-18T18:43:33.938Z,10.78
2022-10-18T18:46:01.405Z,10.71
2022-10-18T18:48:28.388Z,10.61
2022-10-18T18:50:55.188Z,10.62
2022-10-18T18:53:25.996Z,10.66
2022-10-18T18:56:05.280Z,10.67
2022-10-18T18:58:34.384Z,10.62
2022-10-18T19:01:18.407Z,10.45
2022-10-18T19:03:48.222Z,10.25
2022-10-18T19:06:27.251Z,10.15
2022-10-18T19:09:00.731Z,10.06
2022-10-18T19:11:31.918Z,9.96
2022-10-18T19:14:00.279Z,9.89
2022-10-18T19:16:35.315Z,9.88
2022-10-18T19:19:19.365Z,9.85
2022-10-18T19:21:52.863Z,9.82
2022-10-18T19:24:21.653Z,9.95
2022-10-18T19:26:51.778Z,10.03
2022-10-18T19:29:22.818Z,10.03
2022-10-18T19:31:51.711Z,9.99
2022-10-18T19:34:20.397Z,10.04
2022-10-18T19:36:48.573Z,10.08
2022-10-18T19:39:19.537Z,10.12
2022-10-18T19:41:48.815Z,10.14
2022-10-18T19:44:17.339Z,10.06
2022-10-18T19:46:44.875Z,9.98
2022-10-18T19:49:12.012Z,9.97
2022-10-18T19:51:39.199Z,10.07
2022-10-18T19:54:06.727Z,10.08
2022-10-18T19:56:33.775Z,10.04
2022-10-18T19:59:00.826Z,9.96
2022-10-18T20:01:29.255Z,9.87
2022-10-18T20:03:56.685Z,9.83
2022-10-18T20:06:24.028Z,9.82
2022-10-18T20:08:51.870Z,9.74
2022-10-18T20:11:21.728Z,9.64
2022-10-18T20:13:48.494Z,9.54
2022-10-18T20:16:17.162Z,9.49
2022-10-18T20:18:44.389Z,9.58
2022-10-18T20:21:13.381Z,9.60
2022-10-18T20:23:41.988Z,9.55
2022-10-18T20:26:17.953Z,9.54
2022-10-18T20:28:56.621Z,9.53
2022-10-18T20:31:33.113Z,9.51
2022-10-18T20:34:03.893Z,9.51
2022-10-18T20:36:32.453Z,9.45
2022-10-18T20:38:59.906Z,9.36
2022-10-18T20:41:33.439Z,9.38
2022-10-18T20:44:02.222Z,9.40
2022-10-18T20:46:31.742Z,9.40
2022-10-18T20:48:58.539Z,9.41
2022-10-18T20:51:25.602Z,9.49
2022-10-18T20:53:52.972Z,9.51
2022-10-18T20:56:22.235Z,9.64
2022-10-18T20:58:50.752Z,9.77
2022-10-18T21:01:21.700Z,9.78
2022-10-18T21:03:50.490Z,9.67
2022-10-18T21:06:23.273Z,9.58
2022-10-18T21:09:01.258Z,9.44
2022-10-18T21:11:29.998Z,9.26
2022-10-18T21:13:59.494Z,9.17
2022-10-18T21:16:26.701Z,9.09
2022-10-18T21:18:54.363Z,9.05
2022-10-18T21:21:23.768Z,8.98
2022-10-18T21:23:52.190Z,9.01
2022-10-18T21:26:21.682Z,9.14
2022-10-18T21:28:53.634Z,9.20
2022-10-18T21:31:22.784Z,9.25
2022-10-18T21:34:01.372Z,9.24
2022-10-18T21:36:33.916Z,9.20
2022-10-18T21:39:02.298Z,9.15
2022-10-18T21:41:30.738Z,9.06
2022-10-18T21:43:57.480Z,8.95
2022-10-18T21:46:26.457Z,8.84
2022-10-18T21:48:55.820Z,8.83
2022-10-18T21:51:25.593Z,8.80
2022-10-18T21:53:54.835Z,8.74
2022-10-18T21:56:31.099Z,8.68
2022-10-18T21:58:58.572Z,8.56
2022-10-18T22:01:34.070Z,8.45
2022-10-18T22:04:03.204Z,8.32
2022-10-18T22:06:33.060Z,8.21
2022-10-18T22:09:02.730Z,8.09
2022-10-18T22:11:37.459Z,8.07
2022-10-18T22:14:04.030Z,8.11
2022-10-18T22:16:30.790Z,8.13
2022-10-18T22:18:59.937Z,8.11
2022-10-18T22:21:27.334Z,8.09
2022-10-18T22:23:58.227Z,8.04
2022-10-18T22:26:37.131Z,8.01
2022-10-18T22:29:08.052Z,7.97
2022-10-18T22:31:38.246Z,7.93
2022-10-18T22:34:08.019Z,7.88
2022-10-18T22:36:35.209Z,7.83
2022-10-18T22:39:02.241Z,7.82
2022-10-18T22:41:28.804Z,7.78
2022-10-18T22:43:57.296Z,7.73
2022-10-18T22:46:27.129Z,7.71
2022-10-18T22:48:53.825Z,7.82
2022-10-18T22:51:20.591Z,8.04
2022-10-18T22:53:47.530Z,8.26
2022-10-18T22:56:19.674Z,8.43
2022-10-18T22:58:47.647Z,8.53
2022-10-18T23:01:17.873Z,8.58
2022-10-18T23:03:44.958Z,8.62
2022-10-18T23:06:35.659Z,8.62
2022-10-18T23:09:09.737Z,8.60
2022-10-18T23:11:37.452Z,8.57
2022-10-18T23:14:05.593Z,8.53
2022-10-18T23:16:32.941Z,8.46
2022-10-18T23:18:59.699Z,8.37
2022-10-18T23:21:28.213Z,8.27
2022-10-18T23:23:56.132Z,8.17
2022-10-18T23:26:25.654Z,8.08
2022-10-18T23:28:53.899Z,8.05
2022-10-18T23:31:32.753Z,8.07
2022-10-18T23:34:04.747Z,8.01
2022-10-18T23:36:32.606Z,7.96
2022-10-18T23:38:59.314Z,7.93
2022-10-18T23:41:26.487Z,7.86
2022-10-18T23:43:53.620Z,7.82
2022-10-18T23:46:20.796Z,7.77
2022-10-18T23:48:48.136Z,7.78
2022-10-18T23:51:16.200Z,7.84
2022-10-18T23:53:43.154Z,7.97
2022-10-18T23:56:15.329Z,8.10
2022-10-18T23:58:43.445Z,8.16
